This is the latest recevied weather packets stored in our database for station/object KF0FSA. If no packets are shown the sender has not sent any weather packets the latest 1 day(s).
| Time | Temp. | Humidity | Pressure | Rain* | Wind** | Luminosity | Snow |
|---|---|---|---|---|---|---|---|
| 1778018648 | 10° C | 34% | 959.1 hPa | 0 mm | 3.13 m/s, 277° | 252 W/m² | - |
| 1778018345 | 10° C | 35% | 959.3 hPa | 0 mm | 3.13 m/s, 314° | 269 W/m² | - |
| 1778018045 | 10° C | 34% | 959.2 hPa | 0 mm | 3.13 m/s, 314° | 273 W/m² | - |
| 1778017746 | 10.56° C | 33% | 959.3 hPa | 0 mm | 2.68 m/s, 297° | 236 W/m² | - |
| 1778017446 | 10.56° C | 33% | 959.2 hPa | 0 mm | 3.13 m/s, 309° | 309 W/m² | - |
| 1778017146 | 10.56° C | 33% | 959.3 hPa | 0 mm | 3.13 m/s, 304° | 311 W/m² | - |
| 1778016845 | 10.56° C | 32% | 959.3 hPa | 0 mm | 3.58 m/s, 312° | 304 W/m² | - |
| 1778016545 | 11.11° C | 32% | 959.3 hPa | 0 mm | 3.13 m/s, 311° | 305 W/m² | - |
| 1778016245 | 11.67° C | 31% | 959.1 hPa | 0 mm | 3.13 m/s, 307° | 513 W/m² | - |
| 1778015947 | 11.11° C | 32% | 958.8 hPa | 0 mm | 2.68 m/s, 304° | 894 W/m² | - |
| 1778015646 | 10.56° C | 32% | 958.9 hPa | 0 mm | 2.68 m/s, 338° | 773 W/m² | - |
| 1778015470 | 10.56° C | 32% | 959.2 hPa | 0 mm | 3.13 m/s, 292° | 382 W/m² | - |
| 1778015047 | 10.56° C | 32% | 959.3 hPa | 0 mm | 3.58 m/s, 311° | 399 W/m² | - |
| 1778014757 | 11.11° C | 33% | 959.3 hPa | 0 mm | 2.68 m/s, 318° | 429 W/m² | - |
| 1778014446 | 11.11° C | 33% | 959.2 hPa | 0 mm | 2.68 m/s, 331° | 363 W/m² | - |
| 1778014272 | 11.67° C | 32% | 959.2 hPa | 0 mm | 2.68 m/s, 340° | 417 W/m² | - |
| 1778013845 | 11.11° C | 31% | 958.9 hPa | 0 mm | 3.13 m/s, 296° | 972 W/m² | - |
| 1778013546 | 11.11° C | 32% | 959.3 hPa | 0 mm | 3.13 m/s, 326° | 315 W/m² | - |
| 1778013370 | 11.11° C | 31% | 959.2 hPa | 0 mm | 2.68 m/s, 294° | 504 W/m² | - |
| 1778012946 | 10.56° C | 33% | 959.1 hPa | 0 mm | 3.13 m/s, 9° | 847 W/m² | - |
| 1778012643 | 11.11° C | 32% | 959.3 hPa | 0 mm | 3.13 m/s, 7° | 710 W/m² | - |
| 1778012343 | 11.67° C | 30% | 959.4 hPa | 0 mm | 3.13 m/s, 316° | 361 W/m² | - |
| 1778012042 | 11.67° C | 30% | 959.1 hPa | 0 mm | 3.13 m/s, 351° | 904 W/m² | - |
| 1778011743 | 11.11° C | 32% | 959.1 hPa | 0 mm | 3.13 m/s, 330° | 1032 W/m² | - |
| 1778011443 | 11.67° C | 30% | 959.6 hPa | 0 mm | 3.13 m/s, 300° | 340 W/m² | - |
* Rain latest hour (hover to see other rain measurements)
** Current wind speed in m/s (hover to see current wind gust speed)